LIEE/CAG METAR and TAF weather

Enter ICAO airport designator
Station Type Date Time Source
LIEE METAR 2018/12/10 02:20 UTC NOAA

LIEE 100220Z 33024KT CAVOK 14/07 Q1019


Station Type Date Time Source
LIEE Decoded METAR 2018/12/10 02:20 UTC NOAA

Cagliari / Elmas, Italy (LIEE) 39-15N 009-04E 5M
Dec 09, 2018 - 09:20 PM EST / 2018.12.10 0220 UTC
Wind: from the NNW (330 degrees) at 28 MPH (24 KT):0
Visibility: greater than 7 mile(s):0
Temperature: 57 F (14 C)
Dew Point: 44 F (7 C)
Relative Humidity: 62%
Pressure (altimeter): 30.09 in. Hg (1019 hPa)
ob: LIEE 100220Z 33024KT CAVOK 14/07 Q1019
cycle: 2

Station Type Date Time Source
LIEE TAF 2018/12/09 18:21 UTC NOAA

TAF LIEE 091700Z 0918/1018 34020KT 9999 SCT030
TEMPO 1006/1016 34020G30KT


Example: see airport list